Time;durP1;ratioP1;P1;durP2;ratioP2;P2;SDS_P1;SDS_P2;PMS_P1;PMS_P2;Temp;Humidity;BMP_temperature;BMP_pressure;BME280_temperature;BME280_humidity;BME280_pressure;Samples;Min_cycle;Max_cycle;Signal;HPM_P1;HPM_P2
2023/02/23 00:01:49;;;;;;;62.03;34.87;;;10.40;99.90;;;;;;5093738;28;20624;-78
2023/02/23 00:04:17;;;;;;;62.60;33.87;;;10.40;99.90;;;;;;5075249;28;20171;-78
2023/02/23 00:06:43;;;;;;;62.33;34.80;;;10.40;99.90;;;;;;5093630;28;20513;-78
2023/02/23 00:09:21;;;;;;;62.03;35.57;;;10.30;99.90;;;;;;5075269;28;20194;-77
2023/02/23 00:11:51;;;;;;;60.33;32.20;;;10.30;99.90;;;;;;5093015;28;20179;-78
2023/02/23 00:14:17;;;;;;;60.57;34.03;;;10.40;99.90;;;;;;5074366;28;20171;-78
2023/02/23 00:16:45;;;;;;;59.40;32.80;;;10.30;99.90;;;;;;5092799;28;20296;-77
2023/02/23 00:19:12;;;;;;;59.80;34.73;;;10.40;99.90;;;;;;5093219;28;20384;-75
2023/02/23 00:21:40;;;;;;;57.70;33.30;;;10.40;99.90;;;;;;5092643;28;20181;-76
2023/02/23 00:24:14;;;;;;;61.03;32.90;;;10.30;99.90;;;;;;5092835;28;20162;-78
2023/02/23 00:26:41;;;;;;;56.80;32.70;;;10.40;99.90;;;;;;5074589;28;20209;-77
2023/02/23 00:29:11;;;;;;;54.67;30.77;;;10.40;99.90;;;;;;5073642;28;20202;-78
2023/02/23 00:31:37;;;;;;;52.80;32.13;;;10.30;99.90;;;;;;5071479;28;20241;-78
2023/02/23 00:34:04;;;;;;;52.93;30.13;;;10.40;99.90;;;;;;5072517;28;20162;-77
2023/02/23 00:36:33;;;;;;;52.93;30.23;;;10.50;99.90;;;;;;5072392;28;20178;-77
2023/02/23 00:39:05;;;;;;;51.60;32.23;;;10.40;99.90;;;;;;5072573;28;20155;-78
2023/02/23 00:41:30;;;;;;;52.73;32.10;;;10.40;99.90;;;;;;5071115;28;20163;-78
2023/02/23 00:43:59;;;;;;;52.37;30.00;;;10.50;99.90;;;;;;5072523;28;20246;-76
2023/02/23 00:46:29;;;;;;;51.33;30.77;;;10.60;99.90;;;;;;5072440;28;20253;-78
2023/02/23 00:48:57;;;;;;;48.63;30.47;;;10.50;99.90;;;;;;5092053;28;20182;-78
2023/02/23 00:51:26;;;;;;;47.53;29.23;;;10.50;99.90;;;;;;5092675;28;20202;-76
2023/02/23 00:53:56;;;;;;;44.13;28.07;;;10.50;99.90;;;;;;5092421;28;20529;-78
2023/02/23 00:56:22;;;;;;;45.07;28.07;;;10.40;99.90;;;;;;5092575;28;20228;-77
2023/02/23 00:58:47;;;;;;;43.53;27.37;;;10.50;99.90;;;;;;5074619;28;20159;-77
2023/02/23 01:01:15;;;;;;;39.20;26.53;;;10.30;99.90;;;;;;5074513;28;20178;-77
2023/02/23 01:03:42;;;;;;;43.63;27.73;;;10.20;99.90;;;;;;5074318;28;20695;-77
2023/02/23 01:06:10;;;;;;;41.30;26.03;;;10.20;99.90;;;;;;5092370;28;20627;-76
2023/02/23 01:08:38;;;;;;;39.43;26.43;;;10.20;99.90;;;;;;5092139;28;20163;-76
2023/02/23 01:11:06;;;;;;;38.73;25.33;;;10.20;99.90;;;;;;5091833;28;20189;-76
2023/02/23 01:13:31;;;;;;;41.83;26.23;;;10.30;99.90;;;;;;5092514;28;20171;-75
2023/02/23 01:15:57;;;;;;;37.90;25.57;;;10.40;99.90;;;;;;5092262;28;20155;-74
2023/02/23 01:18:23;;;;;;;38.80;25.43;;;10.20;99.90;;;;;;5074264;28;20167;-74
2023/02/23 01:20:49;;;;;;;42.13;26.13;;;10.30;99.90;;;;;;5092352;28;20189;-73
2023/02/23 01:23:15;;;;;;;40.23;25.70;;;10.40;99.90;;;;;;5092172;28;20173;-75
2023/02/23 01:25:42;;;;;;;39.67;25.53;;;10.40;99.90;;;;;;5092236;28;20244;-74
2023/02/23 01:28:09;;;;;;;38.90;25.07;;;10.30;99.90;;;;;;5074039;28;20186;-73
2023/02/23 01:30:35;;;;;;;44.23;27.20;;;10.30;99.90;;;;;;5091653;28;20190;-74
2023/02/23 01:33:01;;;;;;;42.00;25.60;;;10.40;99.90;;;;;;5074107;28;20262;-74
2023/02/23 01:35:28;;;;;;;45.67;27.13;;;10.40;99.90;;;;;;5092162;28;20150;-74
2023/02/23 01:37:53;;;;;;;43.40;26.70;;;10.40;99.90;;;;;;5092069;28;20246;-74
2023/02/23 01:40:27;;;;;;;42.90;25.93;;;10.30;99.90;;;;;;5094912;28;20204;-74
2023/02/23 01:43:13;;;;;;;43.57;27.03;;;10.30;99.90;;;;;;5096007;28;20143;-75
2023/02/23 01:45:40;;;;;;;41.20;26.73;;;10.30;99.90;;;;;;5095671;28;20165;-74
2023/02/23 01:48:11;;;;;;;49.40;29.03;;;10.30;99.90;;;;;;5095906;28;20162;-74
2023/02/23 01:51:06;;;;;;;48.63;28.53;;;10.30;99.90;;;;;;5095639;28;20201;-74
2023/02/23 01:53:35;;;;;;;49.57;29.60;;;10.20;99.90;;;;;;5084128;28;20186;-75
2023/02/23 01:56:13;;;;;;;50.23;29.23;;;10.30;99.90;;;;;;5094939;28;20201;-74
2023/02/23 01:58:42;;;;;;;49.87;26.87;;;10.20;99.90;;;;;;5095606;28;20158;-74
2023/02/23 02:01:10;;;;;;;49.93;27.90;;;10.30;99.90;;;;;;5077494;28;20578;-74
2023/02/23 02:03:44;;;;;;;51.20;29.40;;;10.30;99.90;;;;;;5077251;28;20159;-74
2023/02/23 02:06:13;;;;;;;49.87;29.13;;;10.20;99.90;;;;;;5095048;28;20261;-74
2023/02/23 02:08:44;;;;;;;55.87;30.30;;;10.20;99.90;;;;;;5095122;28;20247;-74
2023/02/23 02:11:29;;;;;;;53.20;29.50;;;10.10;99.90;;;;;;5075181;28;20642;-75
2023/02/23 02:13:58;;;;;;;54.50;29.67;;;10.10;99.90;;;;;;5074909;28;20508;-74
2023/02/23 02:16:41;;;;;;;55.87;30.77;;;10.10;99.90;;;;;;5056939;28;20271;-74
2023/02/23 02:19:42;;;;;;;59.33;30.30;;;10.10;99.90;;;;;;5075028;28;20158;-75
2023/02/23 02:22:47;;;;;;;61.43;30.90;;;10.20;99.90;;;;;;5074602;28;20181;-74
2023/02/23 02:26:02;;;;;;;65.00;31.83;;;10.10;99.90;;;;;;5074639;28;20182;-73
2023/02/23 02:29:08;;;;;;;62.77;32.13;;;10.20;99.90;;;;;;5076847;28;20191;-74
2023/02/23 02:32:00;;;;;;;62.53;31.93;;;10.30;99.90;;;;;;5094737;28;20189;-73
2023/02/23 02:34:47;;;;;;;68.10;33.20;;;10.10;99.90;;;;;;5094935;28;20576;-74
2023/02/23 02:37:32;;;;;;;64.40;33.40;;;10.10;99.90;;;;;;5094040;28;20253;-74
2023/02/23 02:40:25;;;;;;;65.67;32.57;;;10.00;99.90;;;;;;5094752;28;20174;-75
2023/02/23 02:43:13;;;;;;;76.80;34.27;;;10.00;99.90;;;;;;5094727;28;20182;-74
2023/02/23 02:45:51;;;;;;;68.20;33.27;;;10.10;99.90;;;;;;5094311;28;20169;-74
2023/02/23 02:48:29;;;;;;;66.00;34.10;;;10.10;99.90;;;;;;5076361;28;20231;-74
2023/02/23 02:51:22;;;;;;;69.67;33.73;;;10.10;99.90;;;;;;5093400;28;20301;-74
2023/02/23 02:54:05;;;;;;;70.33;32.83;;;9.90;99.90;;;;;;5094412;28;20168;-76
2023/02/23 02:56:39;;;;;;;71.63;33.60;;;10.00;99.90;;;;;;5094690;28;20163;-74
2023/02/23 04:18:06;;;;;;;86.93;36.37;;;10.00;99.90;;;;;;5092781;28;20262;-75
2023/02/23 04:20:32;;;;;;;96.43;36.97;;;10.00;99.90;;;;;;5093089;28;20170;-75
2023/02/23 04:22:58;;;;;;;84.30;34.60;;;10.10;99.90;;;;;;5092755;28;20257;-74
2023/02/23 04:25:25;;;;;;;95.37;36.07;;;10.00;99.90;;;;;;5092928;28;20253;-75
2023/02/23 04:27:51;;;;;;;86.27;34.40;;;9.90;99.90;;;;;;5074757;28;20285;-75
2023/02/23 04:30:17;;;;;;;80.17;34.80;;;9.90;99.90;;;;;;5092790;28;20285;-75
2023/02/23 04:32:44;;;;;;;93.87;36.37;;;9.90;99.90;;;;;;5092659;28;20166;-75
2023/02/23 04:35:11;;;;;;;83.73;34.33;;;9.90;99.90;;;;;;5092837;28;20245;-74
2023/02/23 04:37:37;;;;;;;76.07;34.43;;;9.90;99.90;;;;;;5092886;28;20245;-74
2023/02/23 04:40:03;;;;;;;76.63;32.87;;;9.80;99.90;;;;;;5092691;28;20695;-75
2023/02/23 04:42:29;;;;;;;79.87;33.53;;;9.80;99.90;;;;;;5092706;28;20257;-74
2023/02/23 04:44:55;;;;;;;80.03;33.30;;;9.80;99.90;;;;;;5092762;28;20194;-74
2023/02/23 04:47:20;;;;;;;78.73;34.70;;;9.90;99.90;;;;;;5092620;28;20175;-74
2023/02/23 04:49:47;;;;;;;75.77;33.33;;;9.90;99.90;;;;;;5092513;28;20190;-74
2023/02/23 04:52:12;;;;;;;79.60;34.40;;;9.90;99.90;;;;;;5074654;28;20242;-75
2023/02/23 04:54:38;;;;;;;87.50;35.03;;;10.00;99.90;;;;;;5092395;28;20171;-74
2023/02/23 04:57:05;;;;;;;77.43;31.83;;;9.90;99.90;;;;;;5092711;28;20534;-75
2023/02/23 04:59:31;;;;;;;76.23;34.57;;;9.80;99.90;;;;;;5092287;28;20191;-75
2023/02/23 05:01:57;;;;;;;76.60;33.57;;;9.80;99.90;;;;;;5074327;28;20662;-75
2023/02/23 05:04:23;;;;;;;74.17;33.13;;;9.80;99.90;;;;;;5092587;28;20312;-75
2023/02/23 05:06:49;;;;;;;68.33;32.20;;;9.80;99.90;;;;;;5092022;28;20179;-75
2023/02/23 05:09:15;;;;;;;84.43;35.83;;;9.80;99.90;;;;;;5074203;28;20660;-77
2023/02/23 05:11:41;;;;;;;80.63;35.30;;;9.80;99.90;;;;;;5092246;28;20596;-76
2023/02/23 05:14:06;;;;;;;81.93;34.03;;;9.90;99.90;;;;;;5075027;28;20227;-77
2023/02/23 05:16:32;;;;;;;82.33;33.87;;;9.90;99.90;;;;;;5077870;28;20174;-76
2023/02/23 05:18:57;;;;;;;76.77;34.80;;;9.90;99.90;;;;;;5096107;28;20626;-76
2023/02/23 05:21:23;;;;;;;82.97;35.37;;;9.90;99.90;;;;;;5096034;28;20179;-76
2023/02/23 05:23:49;;;;;;;74.97;34.17;;;9.90;99.90;;;;;;5078125;28;20178;-77
2023/02/23 05:26:17;;;;;;;78.43;33.63;;;9.70;99.90;;;;;;5095639;28;20189;-77
2023/02/23 05:28:43;;;;;;;75.53;33.53;;;9.70;99.90;;;;;;5078092;28;20179;-77
2023/02/23 05:31:10;;;;;;;77.50;35.10;;;9.70;99.90;;;;;;5077548;28;20190;-76
2023/02/23 05:33:44;;;;;;;76.20;35.17;;;9.70;99.90;;;;;;5077547;28;20258;-77
2023/02/23 05:36:12;;;;;;;75.37;34.53;;;9.70;99.90;;;;;;5095984;28;20173;-77
2023/02/23 05:38:38;;;;;;;81.70;34.67;;;9.70;99.90;;;;;;5077258;28;20175;-76
2023/02/23 05:41:06;;;;;;;78.80;35.93;;;9.80;99.90;;;;;;5077684;28;20170;-76
2023/02/23 05:43:31;;;;;;;82.00;35.33;;;9.80;99.90;;;;;;5077742;28;20615;-77
2023/02/23 05:45:57;;;;;;;81.83;35.00;;;9.80;99.90;;;;;;5095275;28;20178;-76
2023/02/23 05:48:23;;;;;;;85.70;35.97;;;9.80;99.90;;;;;;5077693;28;20562;-74
2023/02/23 05:50:48;;;;;;;88.70;36.30;;;9.90;99.90;;;;;;5077385;28;20327;-75
2023/02/23 05:53:14;;;;;;;85.30;36.47;;;9.90;99.90;;;;;;5095738;28;20167;-75
2023/02/23 05:55:39;;;;;;;83.87;35.90;;;9.90;99.90;;;;;;5077087;28;20534;-74
2023/02/23 05:58:06;;;;;;;84.07;35.20;;;9.90;99.90;;;;;;5077546;28;20614;-75
2023/02/23 06:00:32;;;;;;;84.40;34.57;;;9.90;99.90;;;;;;5076392;28;20213;-75
2023/02/23 06:02:57;;;;;;;84.70;35.70;;;9.90;99.90;;;;;;5095270;28;20178;-74
2023/02/23 06:05:23;;;;;;;82.70;34.73;;;9.80;99.90;;;;;;5095307;28;20674;-75
2023/02/23 06:07:49;;;;;;;81.83;34.37;;;9.80;99.90;;;;;;5095497;28;20151;-75
2023/02/23 06:10:14;;;;;;;87.37;36.33;;;10.00;99.90;;;;;;5095296;28;20186;-74
2023/02/23 06:12:41;;;;;;;87.20;34.83;;;10.00;99.90;;;;;;5095332;28;20257;-76
2023/02/23 06:15:08;;;;;;;89.27;36.70;;;9.90;99.90;;;;;;5076970;28;20171;-74
2023/02/23 06:17:34;;;;;;;84.47;35.33;;;10.00;99.90;;;;;;5077184;28;20186;-76
2023/02/23 06:20:03;;;;;;;90.13;35.30;;;10.00;99.90;;;;;;5095172;28;20569;-75
2023/02/23 06:22:29;;;;;;;83.23;34.90;;;10.00;99.90;;;;;;5095272;28;20624;-75
2023/02/23 06:24:55;;;;;;;84.67;36.93;;;9.90;99.90;;;;;;5076869;28;20191;-74
2023/02/23 06:27:21;;;;;;;87.80;35.43;;;9.80;99.90;;;;;;5094056;28;20701;-74
2023/02/23 06:29:46;;;;;;;81.83;35.43;;;9.80;99.90;;;;;;5094794;28;20187;-74
2023/02/23 06:32:12;;;;;;;80.73;33.93;;;9.70;99.90;;;;;;5076799;28;20179;-75
2023/02/23 06:34:38;;;;;;;83.50;35.07;;;9.80;99.90;;;;;;5095003;28;20167;-74
2023/02/23 06:37:05;;;;;;;77.40;36.57;;;9.70;99.90;;;;;;5094563;28;20255;-75
2023/02/23 06:39:31;;;;;;;86.37;35.43;;;9.70;99.90;;;;;;5076712;28;20181;-75
2023/02/23 06:41:56;;;;;;;83.50;34.63;;;9.80;99.90;;;;;;5076496;28;20619;-76
2023/02/23 06:44:23;;;;;;;81.43;34.33;;;9.80;99.90;;;;;;5076744;28;20604;-79
2023/02/23 06:46:49;;;;;;;81.90;35.47;;;9.70;99.90;;;;;;5076438;28;20171;-74
2023/02/23 06:49:14;;;;;;;81.07;34.60;;;9.70;99.90;;;;;;5076374;28;20661;-77
2023/02/23 06:51:40;;;;;;;80.77;35.23;;;9.70;99.90;;;;;;5076395;28;20229;-79
2023/02/23 06:54:05;;;;;;;81.33;34.87;;;9.80;99.90;;;;;;5076660;28;20167;-79
2023/02/23 06:56:31;;;;;;;78.27;35.40;;;9.80;99.90;;;;;;5094269;28;20641;-79
2023/02/23 06:59:32;;;;;;;76.57;35.30;;;9.80;99.90;;;;;;5093680;28;20213;-79
2023/02/23 07:01:58;;;;;;;77.83;34.30;;;9.80;99.90;;;;;;5075791;28;20538;-79
2023/02/23 07:04:24;;;;;;;86.23;35.87;;;9.80;99.90;;;;;;5094047;28;20174;-79
2023/02/23 07:06:51;;;;;;;78.67;33.80;;;9.80;99.90;;;;;;5075957;28;20627;-78
2023/02/23 07:09:17;;;;;;;77.90;34.60;;;9.90;99.90;;;;;;5094303;28;20198;-78
2023/02/23 07:11:45;;;;;;;80.40;35.43;;;9.90;99.90;;;;;;5075807;28;20216;-78
2023/02/23 07:14:11;;;;;;;85.47;35.73;;;10.00;99.90;;;;;;5094200;28;20254;-78
2023/02/23 07:16:38;;;;;;;76.50;34.00;;;10.00;99.90;;;;;;5076001;28;20254;-78
2023/02/23 07:19:05;;;;;;;73.47;32.90;;;10.10;99.90;;;;;;5075871;28;20171;-78
2023/02/23 07:21:38;;;;;;;78.77;33.80;;;10.10;99.90;;;;;;5075761;28;20179;-78
2023/02/23 07:24:04;;;;;;;80.30;34.93;;;10.10;99.90;;;;;;5093794;28;20195;-78
2023/02/23 07:26:35;;;;;;;84.67;35.10;;;10.10;99.90;;;;;;5075481;28;20167;-78
2023/02/23 07:29:01;;;;;;;73.47;31.10;;;10.10;99.90;;;;;;5093653;28;20212;-80
2023/02/23 07:31:27;;;;;;;70.90;33.60;;;10.10;99.90;;;;;;5074938;28;20166;-79
2023/02/23 07:33:53;;;;;;;71.83;33.87;;;10.10;99.90;;;;;;5093670;28;20174;-80
2023/02/23 07:36:21;;;;;;;77.33;33.43;;;10.10;99.90;;;;;;5075741;28;20159;-81
2023/02/23 07:38:46;;;;;;;72.30;32.97;;;10.30;99.90;;;;;;5093082;28;20652;-79
2023/02/23 07:41:12;;;;;;;76.50;33.63;;;10.20;99.90;;;;;;5093302;28;20250;-79
2023/02/23 07:43:38;;;;;;;75.47;33.33;;;10.20;99.90;;;;;;5093409;28;20170;-79
2023/02/23 07:46:04;;;;;;;73.47;32.23;;;10.20;99.90;;;;;;5093595;28;20519;-79
2023/02/23 07:48:31;;;;;;;78.43;34.13;;;10.20;99.90;;;;;;5093094;28;20641;-79
2023/02/23 07:50:56;;;;;;;77.17;34.93;;;10.10;99.90;;;;;;5093157;28;20198;-78
2023/02/23 07:53:23;;;;;;;68.53;33.50;;;10.10;99.90;;;;;;5092986;28;20610;-79
2023/02/23 07:55:56;;;;;;;77.40;35.10;;;10.10;99.90;;;;;;5093430;28;20151;-78
2023/02/23 07:58:23;;;;;;;77.30;33.20;;;10.20;99.90;;;;;;5074876;28;20205;-78
2023/02/23 08:00:50;;;;;;;79.70;35.40;;;10.40;99.90;;;;;;5092866;28;20250;-78
2023/02/23 08:03:15;;;;;;;78.47;33.97;;;10.40;99.90;;;;;;5075022;28;20189;-79
2023/02/23 08:05:43;;;;;;;82.37;34.47;;;10.30;99.90;;;;;;5093428;28;20166;-79
2023/02/23 08:08:10;;;;;;;77.90;34.43;;;10.30;99.90;;;;;;5085982;28;20167;-79
2023/02/23 08:10:37;;;;;;;78.23;36.17;;;10.20;99.90;;;;;;5071978;28;20191;-78
2023/02/23 08:13:06;;;;;;;80.57;34.70;;;10.20;99.90;;;;;;5093329;28;20165;-79
2023/02/23 08:15:32;;;;;;;76.90;35.77;;;10.30;99.90;;;;;;5093077;28;20154;-79
2023/02/23 08:17:59;;;;;;;77.67;37.13;;;10.30;99.90;;;;;;5091698;28;20249;-78
2023/02/23 08:20:26;;;;;;;77.57;35.40;;;10.40;99.90;;;;;;5092861;28;20163;-79
2023/02/23 08:22:54;;;;;;;80.57;36.33;;;10.60;99.90;;;;;;5074959;28;20185;-79
2023/02/23 08:25:21;;;;;;;82.67;36.63;;;10.80;99.90;;;;;;5093002;28;20162;-78
2023/02/23 08:27:50;;;;;;;77.57;35.43;;;10.70;99.90;;;;;;5093235;28;20171;-77
2023/02/23 08:30:20;;;;;;;82.37;37.10;;;10.80;99.90;;;;;;5093103;28;20241;-77
2023/02/23 08:32:52;;;;;;;77.07;35.53;;;10.80;99.90;;;;;;5093306;28;20258;-79
2023/02/23 08:35:30;;;;;;;82.07;36.67;;;10.70;99.90;;;;;;5074470;28;20220;-79
2023/02/23 08:37:58;;;;;;;76.30;36.37;;;10.70;99.90;;;;;;5092856;28;20178;-78
2023/02/23 08:40:23;;;;;;;72.03;35.90;;;10.60;99.90;;;;;;5074825;28;20226;-79
2023/02/23 08:42:52;;;;;;;81.00;36.87;;;10.70;99.90;;;;;;5092897;28;20258;-78
2023/02/23 08:45:28;;;;;;;74.80;36.03;;;10.80;99.90;;;;;;5092908;28;20239;-79
2023/02/23 08:47:55;;;;;;;84.73;37.80;;;10.50;99.90;;;;;;5074739;28;20294;-79
2023/02/23 08:50:21;;;;;;;84.17;38.10;;;10.50;99.90;;;;;;5096000;28;20221;-79
2023/02/23 08:52:48;;;;;;;79.60;37.03;;;10.50;99.90;;;;;;5097135;28;20158;-79
2023/02/23 08:55:20;;;;;;;83.93;38.40;;;10.50;99.90;;;;;;5097101;28;20630;-78
2023/02/23 08:57:46;;;;;;;85.03;38.60;;;10.40;99.90;;;;;;5097245;28;20154;-79
2023/02/23 09:00:15;;;;;;;90.30;41.03;;;10.40;99.90;;;;;;5096626;28;20620;-78
2023/02/23 09:02:42;;;;;;;79.57;35.93;;;10.40;99.90;;;;;;5096834;28;20189;-79
2023/02/23 09:05:08;;;;;;;86.50;38.20;;;10.40;99.90;;;;;;5096577;28;20163;-79
2023/02/23 09:07:43;;;;;;;85.20;38.40;;;10.30;99.90;;;;;;5096670;28;20292;-78
2023/02/23 09:10:18;;;;;;;76.73;35.17;;;10.30;99.90;;;;;;5096277;28;20246;-77
2023/02/23 09:12:44;;;;;;;75.87;36.03;;;10.50;99.90;;;;;;5096376;28;20165;-78
2023/02/23 09:15:10;;;;;;;74.17;37.20;;;10.50;99.90;;;;;;5095851;28;20171;-79
2023/02/23 09:17:41;;;;;;;74.13;36.07;;;10.60;99.90;;;;;;5096436;28;20509;-79
2023/02/23 09:20:12;;;;;;;76.43;35.27;;;10.70;99.90;;;;;;5096529;28;20151;-77
2023/02/23 09:22:44;;;;;;;80.07;37.57;;;10.90;99.90;;;;;;5096248;28;20631;-78
2023/02/23 09:25:18;;;;;;;74.17;35.50;;;10.90;99.90;;;;;;5096442;28;20595;-78
2023/02/23 09:27:44;;;;;;;71.03;35.17;;;10.80;99.90;;;;;;5096584;28;20639;-79
2023/02/23 09:30:19;;;;;;;73.77;35.67;;;10.80;99.90;;;;;;5078185;28;20203;-77
2023/02/23 09:32:46;;;;;;;69.90;35.07;;;10.90;99.90;;;;;;5096385;28;20629;-79
2023/02/23 09:35:22;;;;;;;69.43;35.93;;;10.90;99.90;;;;;;5096388;28;20155;-79
2023/02/23 09:37:51;;;;;;;70.50;36.80;;;11.10;99.90;;;;;;5096335;28;20562;-78
2023/02/23 09:40:28;;;;;;;73.73;35.87;;;11.10;99.90;;;;;;5077949;28;20623;-78
2023/02/23 09:43:04;;;;;;;73.30;36.20;;;11.00;99.90;;;;;;5078320;28;20226;-77
2023/02/23 09:45:48;;;;;;;74.80;35.87;;;11.00;99.90;;;;;;5075701;28;20179;-79
2023/02/23 09:48:24;;;;;;;72.07;35.17;;;11.10;99.90;;;;;;5057773;28;20168;-80
2023/02/23 09:51:00;;;;;;;76.57;38.17;;;11.10;99.90;;;;;;5075578;28;20191;-79
2023/02/23 09:53:41;;;;;;;74.77;35.93;;;10.70;99.90;;;;;;5075615;28;20230;-78
2023/02/23 09:56:23;;;;;;;77.83;36.40;;;10.50;99.90;;;;;;5074402;28;20163;-79
2023/02/23 09:58:59;;;;;;;79.83;37.50;;;10.50;99.90;;;;;;5076666;28;20168;-78
2023/02/23 10:01:46;;;;;;;81.00;37.43;;;10.60;99.90;;;;;;5076025;28;20159;-78
2023/02/23 10:04:48;;;;;;;70.43;36.63;;;10.60;99.90;;;;;;5075723;28;20589;-79
2023/02/23 10:07:44;;;;;;;75.53;38.10;;;10.80;99.90;;;;;;5095829;28;20169;-78
2023/02/23 10:10:42;;;;;;;74.07;37.07;;;11.00;99.90;;;;;;5095468;28;20186;-78
2023/02/23 10:13:38;;;;;;;74.83;38.27;;;11.10;99.90;;;;;;5095075;28;20207;-75
2023/02/23 10:16:12;;;;;;;69.97;36.90;;;11.30;99.90;;;;;;5077242;28;20183;-75
2023/02/23 10:18:46;;;;;;;75.83;37.73;;;11.40;99.90;;;;;;5095141;28;20159;-75
2023/02/23 10:21:19;;;;;;;73.10;37.67;;;11.70;99.90;;;;;;5076838;28;20279;-76
2023/02/23 10:23:57;;;;;;;73.23;38.07;;;11.40;99.90;;;;;;5095200;28;20207;-75
2023/02/23 10:26:32;;;;;;;69.30;35.77;;;11.50;99.90;;;;;;5076855;28;20185;-75
2023/02/23 10:28:58;;;;;;;67.67;34.70;;;11.60;99.90;;;;;;5094430;28;20555;-75
2023/02/23 10:31:39;;;;;;;61.67;34.03;;;11.70;99.90;;;;;;5094068;28;20203;-74
2023/02/23 10:34:14;;;;;;;63.73;33.47;;;11.90;99.90;;;;;;5075989;28;20167;-75
2023/02/23 10:36:55;;;;;;;67.17;33.30;;;12.20;99.90;;;;;;5094776;28;20741;-75
2023/02/23 10:39:20;;;;;;;63.07;32.97;;;12.20;99.90;;;;;;5076678;28;20169;-75
2023/02/23 10:41:46;;;;;;;64.77;32.97;;;12.10;99.90;;;;;;5094635;28;20524;-75
2023/02/23 10:44:19;;;;;;;63.53;32.57;;;12.30;99.90;;;;;;5110127;28;20170;-75
2023/02/23 10:46:55;;;;;;;70.10;34.57;;;12.50;99.90;;;;;;5094646;28;20157;-75
2023/02/23 10:49:28;;;;;;;58.60;32.40;;;12.70;99.90;;;;;;5093845;28;20252;-74
2023/02/23 10:52:01;;;;;;;55.33;29.60;;;13.00;99.90;;;;;;5094622;28;20173;-75
2023/02/23 10:54:46;;;;;;;56.30;29.87;;;13.30;99.90;;;;;;5076264;28;20204;-75
2023/02/23 10:57:44;;;;;;;51.90;28.07;;;13.40;99.90;;;;;;5093079;28;20169;-75
2023/02/23 11:00:19;;;;;;;50.97;27.70;;;13.40;99.90;;;;;;5090219;28;20201;-74
2023/02/23 11:02:46;;;;;;;46.77;26.73;;;13.00;99.90;;;;;;5094325;28;20174;-74
2023/02/23 11:05:30;;;;;;;56.30;28.40;;;12.90;99.90;;;;;;5076021;28;20169;-76
2023/02/23 11:08:18;;;;;;;55.40;28.37;;;12.70;99.90;;;;;;5093889;28;20160;-74
2023/02/23 11:11:14;;;;;;;47.40;26.20;;;12.60;99.90;;;;;;5091358;28;20209;-75
2023/02/23 11:13:47;;;;;;;45.13;25.20;;;12.40;99.90;;;;;;5082498;28;20270;-76
2023/02/23 11:16:18;;;;;;;46.00;25.67;;;12.30;99.90;;;;;;5093957;28;20182;-75
2023/02/23 11:18:54;;;;;;;49.27;26.27;;;12.20;99.90;;;;;;5093803;28;20237;-75
2023/02/23 11:21:33;;;;;;;44.90;23.97;;;12.10;99.90;;;;;;5093842;28;20167;-75
2023/02/23 11:24:11;;;;;;;40.37;22.77;;;12.00;99.90;;;;;;5094049;28;20648;-75
2023/02/23 11:26:41;;;;;;;42.40;25.07;;;11.90;99.90;;;;;;5075788;28;20771;-75
2023/02/23 11:29:21;;;;;;;41.70;22.67;;;11.90;99.90;;;;;;5075620;28;20254;-76
2023/02/23 11:31:54;;;;;;;41.47;23.40;;;11.90;99.90;;;;;;5075466;28;20178;-75
2023/02/23 11:34:30;;;;;;;45.30;24.60;;;11.90;99.90;;;;;;5093713;28;20615;-75
2023/02/23 11:37:03;;;;;;;40.97;24.23;;;12.00;99.90;;;;;;5075323;28;20169;-74
2023/02/23 11:39:29;;;;;;;42.63;24.00;;;12.00;99.90;;;;;;5093660;28;20166;-75
2023/02/23 11:42:12;;;;;;;41.37;23.90;;;12.10;99.90;;;;;;5093672;28;20171;-75
2023/02/23 11:44:37;;;;;;;48.30;26.67;;;12.20;99.90;;;;;;5075292;28;20183;-75
2023/02/23 11:47:03;;;;;;;47.77;25.50;;;12.10;99.90;;;;;;5075162;28;20665;-75
2023/02/23 11:49:35;;;;;;;47.73;26.53;;;12.20;99.90;;;;;;5093034;28;20190;-75
2023/02/23 11:52:02;;;;;;;54.07;29.20;;;12.30;99.90;;;;;;5093501;28;20296;-77
2023/02/23 11:54:32;;;;;;;58.13;30.30;;;12.30;99.90;;;;;;5093090;28;20151;-75
2023/02/23 11:57:01;;;;;;;60.20;32.97;;;12.10;99.90;;;;;;5093870;28;20631;-75
2023/02/23 11:59:37;;;;;;;60.43;32.47;;;12.20;99.90;;;;;;5093438;28;20152;-73
2023/02/23 12:02:23;;;;;;;62.50;32.53;;;12.20;99.90;;;;;;5092949;28;20606;-73
2023/02/23 12:04:53;;;;;;;66.97;35.07;;;12.10;99.90;;;;;;5092521;28;20172;-73
2023/02/23 12:07:22;;;;;;;69.13;36.03;;;12.10;99.90;;;;;;5074881;28;20196;-74
2023/02/23 12:09:57;;;;;;;66.20;35.73;;;12.30;99.90;;;;;;5074447;28;20188;-73
2023/02/23 12:12:27;;;;;;;69.53;36.53;;;12.30;99.90;;;;;;5066131;28;20667;-74
2023/02/23 12:15:04;;;;;;;61.23;33.40;;;12.40;99.90;;;;;;5074521;28;20180;-74
2023/02/23 12:17:37;;;;;;;60.37;32.37;;;12.40;99.90;;;;;;5074037;28;20181;-74
2023/02/23 12:20:25;;;;;;;59.40;32.63;;;12.40;99.90;;;;;;5074509;28;20196;-74
2023/02/23 12:22:56;;;;;;;62.40;33.20;;;12.30;99.90;;;;;;5092435;28;20197;-73
2023/02/23 12:25:33;;;;;;;60.77;31.83;;;12.30;99.90;;;;;;5073658;28;20177;-73
2023/02/23 12:28:13;;;;;;;59.07;31.60;;;12.50;99.90;;;;;;5073846;28;20897;-73
2023/02/23 12:30:47;;;;;;;63.47;32.57;;;12.70;99.90;;;;;;5074589;28;20331;-74
2023/02/23 12:33:37;;;;;;;60.63;33.80;;;12.80;99.90;;;;;;5075112;28;20187;-74
2023/02/23 12:36:28;;;;;;;62.20;34.07;;;12.80;99.90;;;;;;5093356;28;20279;-73
2023/02/23 12:38:56;;;;;;;60.50;32.60;;;12.80;99.90;;;;;;5074578;28;20205;-73
2023/02/23 12:41:42;;;;;;;60.90;32.90;;;12.80;99.90;;;;;;5075039;28;20622;-74
2023/02/23 12:44:37;;;;;;;61.87;34.03;;;12.70;99.90;;;;;;5075216;28;20223;-74
2023/02/23 12:47:20;;;;;;;60.87;33.77;;;12.90;99.90;;;;;;5075062;28;20398;-73
2023/02/23 12:50:17;;;;;;;63.60;36.40;;;12.90;99.90;;;;;;5074707;28;20202;-73
2023/02/23 12:53:05;;;;;;;58.43;33.50;;;13.00;99.90;;;;;;5066490;28;20799;-73
2023/02/23 12:56:03;;;;;;;62.07;33.77;;;13.00;99.90;;;;;;5074930;28;20183;-73
2023/02/23 12:58:29;;;;;;;60.07;33.53;;;12.90;99.90;;;;;;5074529;28;20638;-75
2023/02/23 13:01:08;;;;;;;55.07;32.47;;;12.80;99.90;;;;;;5092955;28;20646;-74
2023/02/23 13:04:04;;;;;;;51.10;31.17;;;12.60;99.90;;;;;;5092955;28;20554;-74
2023/02/23 13:06:35;;;;;;;46.87;27.77;;;12.60;99.90;;;;;;5074771;28;20205;-73
2023/02/23 13:09:43;;;;;;;49.93;29.60;;;12.60;99.90;;;;;;5074490;28;20237;-74
2023/02/23 13:12:18;;;;;;;52.63;31.37;;;12.60;99.90;;;;;;5074476;28;20272;-75
2023/02/23 13:15:08;;;;;;;54.43;31.00;;;12.50;99.90;;;;;;5074176;28;20603;-75
2023/02/23 13:17:48;;;;;;;54.80;32.93;;;12.50;99.90;;;;;;5074368;28;20221;-74
2023/02/23 13:20:24;;;;;;;58.27;33.47;;;12.60;99.90;;;;;;5092826;28;20620;-74
2023/02/23 13:22:53;;;;;;;58.00;34.77;;;12.50;99.90;;;;;;5092677;28;20161;-73
2023/02/23 13:25:40;;;;;;;69.13;36.30;;;12.50;99.90;;;;;;5092822;28;20168;-73
2023/02/23 13:28:33;;;;;;;62.17;32.93;;;12.30;99.90;;;;;;5074186;28;20180;-72
2023/02/23 13:31:03;;;;;;;53.53;28.67;;;12.20;99.90;;;;;;5074663;28;20199;-73
2023/02/23 13:33:33;;;;;;;52.70;28.17;;;12.10;99.90;;;;;;5075002;28;20175;-73
2023/02/23 13:36:03;;;;;;;48.40;25.57;;;12.00;99.90;;;;;;5095008;28;20195;-74
2023/02/23 13:38:51;;;;;;;40.67;24.00;;;11.90;99.90;;;;;;5078433;28;20182;-75
2023/02/23 13:41:20;;;;;;;45.37;23.97;;;11.70;99.90;;;;;;5078316;28;20654;-75
2023/02/23 13:44:00;;;;;;;47.10;24.47;;;11.70;99.90;;;;;;5096236;28;20166;-74
2023/02/23 13:46:38;;;;;;;40.53;21.00;;;11.70;99.90;;;;;;5096010;28;20607;-74
2023/02/23 13:49:15;;;;;;;41.23;21.07;;;11.60;99.90;;;;;;5078113;28;20543;-73
2023/02/23 13:51:53;;;;;;;45.90;22.03;;;11.60;99.90;;;;;;5078051;28;20560;-75
2023/02/23 13:54:32;;;;;;;40.93;22.83;;;11.50;99.90;;;;;;5077953;28;20163;-74
2023/02/23 13:57:01;;;;;;;38.03;20.43;;;11.70;99.90;;;;;;5077730;28;20189;-74
2023/02/23 13:59:37;;;;;;;39.07;20.50;;;11.70;99.90;;;;;;5077810;28;20204;-74
2023/02/23 14:02:22;;;;;;;45.40;23.33;;;11.70;99.90;;;;;;5077154;28;20267;-74
2023/02/23 14:04:49;;;;;;;40.50;20.67;;;11.90;99.90;;;;;;5095750;28;20167;-73
2023/02/23 14:07:26;;;;;;;35.07;20.50;;;11.80;99.90;;;;;;5095356;28;20170;-74
2023/02/23 14:10:05;;;;;;;37.17;20.63;;;11.70;99.90;;;;;;5077640;28;20183;-73
2023/02/23 14:12:39;;;;;;;35.73;19.00;;;11.70;99.90;;;;;;5076778;28;20308;-74
2023/02/23 14:15:34;;;;;;;38.40;19.80;;;11.80;99.90;;;;;;5077210;28;20588;-75